createdAt,value
2017-10-16T00:01:51.879Z,15.88
2017-10-16T00:04:18.134Z,15.92
2017-10-16T00:06:44.381Z,15.88
2017-10-16T00:09:10.632Z,15.89
2017-10-16T00:11:37.945Z,15.90
2017-10-16T00:14:04.174Z,15.92
2017-10-16T00:16:30.402Z,15.92
2017-10-16T00:18:57.038Z,15.88
2017-10-16T00:21:23.278Z,15.87
2017-10-16T00:23:49.522Z,15.86
2017-10-16T00:26:16.089Z,15.86
2017-10-16T00:28:42.366Z,15.87
2017-10-16T00:31:08.910Z,15.92
2017-10-16T00:33:35.148Z,15.87
2017-10-16T00:36:01.399Z,15.88
2017-10-16T00:38:28.386Z,15.85
2017-10-16T00:40:54.630Z,15.85
2017-10-16T00:43:21.093Z,15.84
2017-10-16T00:45:48.107Z,15.82
2017-10-16T00:48:14.357Z,15.86
2017-10-16T00:50:40.629Z,15.84
2017-10-16T00:53:06.899Z,15.88
2017-10-16T00:55:33.154Z,15.85
2017-10-16T00:58:00.190Z,15.82
2017-10-16T01:00:26.463Z,15.91
2017-10-16T01:02:52.714Z,15.86
2017-10-16T01:05:19.018Z,15.87
2017-10-16T01:07:45.309Z,15.89
2017-10-16T01:10:11.572Z,15.89
2017-10-16T01:12:38.046Z,15.88
2017-10-16T01:15:04.287Z,15.87
2017-10-16T01:17:30.530Z,15.87
2017-10-16T01:19:57.034Z,15.87
2017-10-16T01:22:23.304Z,15.87
2017-10-16T01:24:50.341Z,15.87
2017-10-16T01:27:17.409Z,15.86
2017-10-16T01:29:44.433Z,15.85
2017-10-16T01:32:10.719Z,15.87
2017-10-16T01:34:37.017Z,15.85
2017-10-16T01:37:04.063Z,15.87
2017-10-16T01:39:31.082Z,15.85
2017-10-16T01:41:57.342Z,15.84
2017-10-16T01:44:23.632Z,15.82
2017-10-16T01:46:49.882Z,15.82
2017-10-16T01:49:16.890Z,15.77
2017-10-16T01:51:43.220Z,15.73
2017-10-16T01:54:09.513Z,15.76
2017-10-16T01:56:35.770Z,15.71
2017-10-16T01:59:03.052Z,15.72
2017-10-16T02:01:29.283Z,15.68
2017-10-16T02:03:55.568Z,15.59
2017-10-16T02:06:21.850Z,15.61
2017-10-16T02:08:48.822Z,15.61
2017-10-16T02:11:15.069Z,15.59
2017-10-16T02:13:41.531Z,15.58
2017-10-16T02:16:07.761Z,15.53
2017-10-16T02:18:33.995Z,15.50
2017-10-16T02:21:00.522Z,15.50
2017-10-16T02:23:26.750Z,15.47
2017-10-16T02:25:53.002Z,15.44
2017-10-16T02:28:19.405Z,15.41
2017-10-16T02:30:46.374Z,15.40
2017-10-16T02:33:12.610Z,15.36
2017-10-16T02:35:39.213Z,15.35
2017-10-16T02:38:05.461Z,15.36
2017-10-16T02:40:31.685Z,15.33
2017-10-16T02:42:57.963Z,15.27
2017-10-16T02:45:24.196Z,15.27
2017-10-16T02:47:50.431Z,15.30
2017-10-16T02:50:16.948Z,15.28
2017-10-16T02:52:43.186Z,15.23
2017-10-16T02:55:09.415Z,15.22
2017-10-16T02:57:35.778Z,15.16
2017-10-16T03:00:02.055Z,15.18
2017-10-16T03:02:29.030Z,15.18
2017-10-16T03:04:55.270Z,15.16
2017-10-16T03:07:21.506Z,15.15
2017-10-16T03:09:47.747Z,15.16
2017-10-16T03:12:14.718Z,15.12
2017-10-16T03:14:41.734Z,15.09
2017-10-16T03:17:08.106Z,15.12
2017-10-16T03:19:35.078Z,15.09
2017-10-16T03:22:01.320Z,15.06
2017-10-16T03:24:27.603Z,15.06
2017-10-16T03:26:54.573Z,15.00
2017-10-16T03:29:21.575Z,15.01
2017-10-16T03:31:47.859Z,15.02
2017-10-16T03:34:14.103Z,15.06
2017-10-16T03:36:40.347Z,15.08
2017-10-16T03:39:06.658Z,15.06
2017-10-16T03:41:32.889Z,15.07
2017-10-16T03:43:59.131Z,15.03
2017-10-16T03:46:25.667Z,15.03
2017-10-16T03:48:52.671Z,15.00
2017-10-16T03:51:18.962Z,15.01
2017-10-16T03:53:45.218Z,15.02
2017-10-16T03:56:12.187Z,15.02
2017-10-16T03:58:38.413Z,15.02
2017-10-16T04:01:04.778Z,15.07
2017-10-16T04:03:31.903Z,15.07
2017-10-16T04:05:59.803Z,15.07
2017-10-16T04:08:26.158Z,15.01
2017-10-16T04:10:53.143Z,15.02
2017-10-16T04:13:20.299Z,15.03
2017-10-16T04:15:48.473Z,15.06
2017-10-16T04:18:16.373Z,15.06
2017-10-16T04:20:42.663Z,15.06
2017-10-16T04:23:09.906Z,15.11
2017-10-16T04:25:36.199Z,15.08
2017-10-16T04:28:03.221Z,15.12
2017-10-16T04:30:29.494Z,15.16
2017-10-16T04:32:55.759Z,15.15
2017-10-16T04:35:21.992Z,15.10
2017-10-16T04:37:48.275Z,15.06
2017-10-16T04:40:15.272Z,15.07
2017-10-16T04:42:41.534Z,15.01
2017-10-16T04:45:08.522Z,15.05
2017-10-16T04:47:34.755Z,15.04
2017-10-16T04:50:01.023Z,15.04
2017-10-16T04:52:27.262Z,15.05
2017-10-16T04:54:54.243Z,15.01
2017-10-16T04:57:20.833Z,15.05
2017-10-16T04:59:47.062Z,15.01
2017-10-16T05:02:13.290Z,15.01
2017-10-16T05:04:39.677Z,15.01
2017-10-16T05:07:05.906Z,15.02
2017-10-16T05:09:32.247Z,14.97
2017-10-16T05:11:58.505Z,14.95
2017-10-16T05:14:24.851Z,15.01
2017-10-16T05:16:51.822Z,14.96
2017-10-16T05:19:18.050Z,14.93
2017-10-16T05:21:44.311Z,14.96
2017-10-16T05:24:10.539Z,14.93
2017-10-16T05:26:36.757Z,14.93
2017-10-16T05:29:03.017Z,14.95
2017-10-16T05:31:29.262Z,14.94
2017-10-16T05:33:56.245Z,14.94
2017-10-16T05:36:22.831Z,14.95
2017-10-16T05:38:49.081Z,14.98
2017-10-16T05:41:16.098Z,14.97
2017-10-16T05:43:42.421Z,14.91
2017-10-16T05:46:08.695Z,14.92
2017-10-16T05:48:35.710Z,14.92
2017-10-16T05:51:02.074Z,14.89
2017-10-16T05:53:29.078Z,14.89
2017-10-16T05:55:55.331Z,14.85
2017-10-16T05:58:22.364Z,14.83
2017-10-16T06:00:48.648Z,14.83
2017-10-16T06:03:14.950Z,14.87
2017-10-16T06:05:41.995Z,14.85
2017-10-16T06:08:09.006Z,14.83
2017-10-16T06:10:35.322Z,14.81
2017-10-16T06:13:01.627Z,14.76
2017-10-16T06:15:27.949Z,14.75
2017-10-16T06:17:54.271Z,14.79
2017-10-16T06:20:21.310Z,14.79
2017-10-16T06:22:48.377Z,14.75
2017-10-16T06:25:14.973Z,14.74
2017-10-16T06:27:41.254Z,14.71
2017-10-16T06:30:07.536Z,14.78
2017-10-16T06:32:34.972Z,14.72
2017-10-16T06:35:01.258Z,14.76
2017-10-16T06:37:27.545Z,14.77
2017-10-16T06:39:54.079Z,14.77
2017-10-16T06:42:20.934Z,14.87
2017-10-16T06:44:47.336Z,14.83
2017-10-16T06:47:13.663Z,14.86
2017-10-16T06:49:39.966Z,14.87
2017-10-16T06:52:06.255Z,14.89
2017-10-16T06:54:33.593Z,14.95
2017-10-16T06:56:59.846Z,14.96
2017-10-16T06:59:26.864Z,14.99
2017-10-16T07:01:53.499Z,15.00
2017-10-16T07:04:20.068Z,15.02
2017-10-16T07:06:47.061Z,15.04
2017-10-16T07:09:13.339Z,15.03
2017-10-16T07:11:40.348Z,15.09
2017-10-16T07:14:06.634Z,15.16
2017-10-16T07:16:33.736Z,15.22
2017-10-16T07:18:59.993Z,15.28
2017-10-16T07:21:27.987Z,15.27
2017-10-16T07:23:54.288Z,15.30
2017-10-16T07:26:21.321Z,15.36
2017-10-16T07:28:47.842Z,15.40
2017-10-16T07:31:14.123Z,15.44
2017-10-16T07:33:40.428Z,15.50
2017-10-16T07:36:07.546Z,15.59
2017-10-16T07:38:33.795Z,15.65
2017-10-16T07:41:00.105Z,15.69
2017-10-16T07:43:27.182Z,15.75
2017-10-16T07:45:54.564Z,15.81
2017-10-16T07:48:20.825Z,15.84
2017-10-16T07:50:47.139Z,15.83
2017-10-16T07:53:13.415Z,15.87
2017-10-16T07:55:40.406Z,15.92
2017-10-16T07:58:06.696Z,16.00
2017-10-16T08:00:33.729Z,16.04
2017-10-16T08:02:59.985Z,16.10
2017-10-16T08:05:27.115Z,16.15
2017-10-16T08:07:53.447Z,16.22
2017-10-16T08:10:19.707Z,16.29
2017-10-16T08:12:46.016Z,16.36
2017-10-16T08:15:13.126Z,16.44
2017-10-16T08:17:39.390Z,16.50
2017-10-16T08:20:06.630Z,16.59
2017-10-16T08:22:32.945Z,16.66
2017-10-16T08:24:59.240Z,16.69
2017-10-16T08:27:25.643Z,16.79
2017-10-16T08:29:52.785Z,16.81
2017-10-16T08:32:19.822Z,16.86
2017-10-16T08:34:46.134Z,16.92
2017-10-16T08:37:12.446Z,16.93
2017-10-16T08:39:38.877Z,16.99
2017-10-16T08:42:05.227Z,17.03
2017-10-16T08:44:31.535Z,17.14
2017-10-16T08:46:58.183Z,17.23
2017-10-16T08:49:24.633Z,17.22
2017-10-16T08:51:52.210Z,17.28
2017-10-16T08:54:18.699Z,17.31
2017-10-16T08:56:45.760Z,17.37
2017-10-16T08:59:12.081Z,17.52
2017-10-16T09:01:38.415Z,17.60
2017-10-16T09:04:04.730Z,17.61
2017-10-16T09:06:31.831Z,17.73
2017-10-16T09:08:58.247Z,17.84
2017-10-16T09:11:24.590Z,17.90
2017-10-16T09:13:51.691Z,17.92
2017-10-16T09:16:18.008Z,18.00
2017-10-16T09:18:44.363Z,18.12
2017-10-16T09:21:10.634Z,18.18
2017-10-16T09:23:37.659Z,18.17
2017-10-16T09:26:05.179Z,18.24
2017-10-16T09:28:32.316Z,18.28
2017-10-16T09:30:59.401Z,18.33
2017-10-16T09:33:27.273Z,18.38
2017-10-16T09:35:53.619Z,18.42
2017-10-16T09:38:21.187Z,18.47
2017-10-16T09:40:48.523Z,18.52
2017-10-16T09:43:15.491Z,18.63
2017-10-16T09:45:43.136Z,18.62
2017-10-16T09:48:10.611Z,18.66
2017-10-16T09:50:37.656Z,18.79
2017-10-16T09:53:05.221Z,18.87
2017-10-16T09:55:33.955Z,18.97
2017-10-16T09:58:00.274Z,19.04
2017-10-16T10:00:26.577Z,18.99
2017-10-16T10:02:53.715Z,18.98
2017-10-16T10:05:22.399Z,19.01
2017-10-16T10:07:49.444Z,19.05
2017-10-16T10:10:17.122Z,19.03
2017-10-16T10:12:44.612Z,19.22
2017-10-16T10:15:10.935Z,19.38
2017-10-16T10:17:38.617Z,19.35
2017-10-16T10:20:04.932Z,19.43
2017-10-16T10:22:31.226Z,19.47
2017-10-16T10:24:58.256Z,19.57
2017-10-16T10:27:26.174Z,19.46
2017-10-16T10:29:52.498Z,19.47
2017-10-16T10:32:19.346Z,19.51
2017-10-16T10:34:45.881Z,19.57
2017-10-16T10:37:12.256Z,19.75
2017-10-16T10:39:38.522Z,19.90
2017-10-16T10:42:04.780Z,19.98
2017-10-16T10:44:33.104Z,20.17
2017-10-16T10:47:00.343Z,20.39
2017-10-16T10:49:27.652Z,20.31
2017-10-16T10:51:54.983Z,20.22
2017-10-16T10:54:21.275Z,20.18
2017-10-16T10:56:47.553Z,20.33
2017-10-16T10:59:13.905Z,20.33
2017-10-16T11:01:40.939Z,20.20
2017-10-16T11:04:07.240Z,20.14
2017-10-16T11:06:34.292Z,20.17
2017-10-16T11:09:01.314Z,20.13
2017-10-16T11:11:27.616Z,20.10
2017-10-16T11:13:53.953Z,20.06
2017-10-16T11:16:20.244Z,20.19
2017-10-16T11:18:47.079Z,20.43
2017-10-16T11:21:14.448Z,20.61
2017-10-16T11:23:40.740Z,20.66
2017-10-16T11:26:07.766Z,20.71
2017-10-16T11:28:34.415Z,20.67
2017-10-16T11:31:01.465Z,20.68
2017-10-16T11:33:28.496Z,20.52
2017-10-16T11:35:54.844Z,20.50
2017-10-16T11:38:21.883Z,20.52
2017-10-16T11:40:48.175Z,20.49
2017-10-16T11:43:14.825Z,20.48
2017-10-16T11:45:42.119Z,20.55
2017-10-16T11:48:09.121Z,20.60
2017-10-16T11:50:35.779Z,20.66
2017-10-16T11:53:02.064Z,20.74
2017-10-16T11:55:28.398Z,20.83
2017-10-16T11:57:54.715Z,20.86
2017-10-16T12:00:21.575Z,21.03
2017-10-16T12:02:48.480Z,21.08
2017-10-16T12:05:16.521Z,21.12
2017-10-16T12:07:44.204Z,21.23
2017-10-16T12:10:11.235Z,21.47
2017-10-16T12:12:37.586Z,21.52
2017-10-16T12:15:04.623Z,21.62
2017-10-16T12:17:31.719Z,21.85
2017-10-16T12:19:58.931Z,21.97
2017-10-16T12:22:25.970Z,22.11
2017-10-16T12:24:53.057Z,22.05
2017-10-16T12:27:19.435Z,22.01
2017-10-16T12:29:45.742Z,22.19
2017-10-16T12:32:12.055Z,22.31
2017-10-16T12:34:38.382Z,22.44
2017-10-16T12:37:04.665Z,22.38
2017-10-16T12:39:31.024Z,22.83
2017-10-16T12:41:57.392Z,22.66
2017-10-16T12:44:23.769Z,22.74
2017-10-16T12:46:50.879Z,23.07
2017-10-16T12:49:17.891Z,22.83
2017-10-16T12:51:44.205Z,23.17
2017-10-16T12:54:11.313Z,23.32
2017-10-16T12:56:37.643Z,23.21
2017-10-16T12:59:03.906Z,23.69
2017-10-16T13:01:30.918Z,23.55
2017-10-16T13:03:57.309Z,23.09
2017-10-16T13:06:23.693Z,23.24
2017-10-16T13:08:50.028Z,23.26
2017-10-16T13:11:16.299Z,23.35
2017-10-16T13:13:42.606Z,23.66
2017-10-16T13:16:09.653Z,23.64
2017-10-16T13:18:36.729Z,23.73
2017-10-16T13:21:03.121Z,23.63
2017-10-16T13:23:29.413Z,23.52
2017-10-16T13:25:55.708Z,23.53
2017-10-16T13:28:22.083Z,23.74
2017-10-16T13:30:48.455Z,23.63
2017-10-16T13:33:15.560Z,23.57
2017-10-16T13:35:41.875Z,23.71
2017-10-16T13:38:08.181Z,23.49
2017-10-16T13:40:34.496Z,23.54
2017-10-16T13:43:01.914Z,23.40
2017-10-16T13:45:28.227Z,23.31
2017-10-16T13:47:54.564Z,22.96
2017-10-16T13:50:21.150Z,22.88
2017-10-16T13:52:47.461Z,22.79
2017-10-16T13:55:13.801Z,22.73
2017-10-16T13:57:41.037Z,22.87
2017-10-16T14:00:07.316Z,22.77
2017-10-16T14:02:33.672Z,22.76
2017-10-16T14:05:00.033Z,22.64
2017-10-16T14:07:26.326Z,22.63
2017-10-16T14:09:52.628Z,22.58
2017-10-16T14:12:19.034Z,22.53
2017-10-16T14:14:46.073Z,22.45
2017-10-16T14:17:12.422Z,22.54
2017-10-16T14:19:39.483Z,22.45
2017-10-16T14:22:05.789Z,22.36
2017-10-16T14:24:32.845Z,22.30
2017-10-16T14:26:59.867Z,22.27
2017-10-16T14:29:29.907Z,22.23
2017-10-16T14:31:56.979Z,22.21
2017-10-16T14:34:23.304Z,22.19
2017-10-16T14:36:49.642Z,22.18
2017-10-16T14:39:15.955Z,22.18
2017-10-16T14:41:42.460Z,22.17
2017-10-16T14:44:08.791Z,22.17
2017-10-16T14:46:35.072Z,22.13
2017-10-16T14:49:01.400Z,22.07
2017-10-16T14:51:27.704Z,22.06
2017-10-16T14:53:54.741Z,21.98
2017-10-16T14:56:21.977Z,21.94
2017-10-16T14:58:48.328Z,21.92
2017-10-16T15:01:15.362Z,21.88
2017-10-16T15:03:42.450Z,21.85
2017-10-16T15:06:08.742Z,21.80
2017-10-16T15:08:35.932Z,21.81
2017-10-16T15:11:02.232Z,21.75
2017-10-16T15:13:29.269Z,21.76
2017-10-16T15:15:56.392Z,21.66
2017-10-16T15:18:22.708Z,21.63
2017-10-16T15:20:49.016Z,21.60
2017-10-16T15:23:15.700Z,21.57
2017-10-16T15:25:41.993Z,21.53
2017-10-16T15:28:08.331Z,21.49
2017-10-16T15:30:34.998Z,21.45
2017-10-16T15:33:01.338Z,21.39
2017-10-16T15:35:27.657Z,21.33
2017-10-16T15:37:53.980Z,21.34
2017-10-16T15:40:20.292Z,21.38
2017-10-16T15:42:47.395Z,21.36
2017-10-16T15:45:14.708Z,21.26
2017-10-16T15:47:40.995Z,21.20
2017-10-16T15:50:07.294Z,21.23
2017-10-16T15:52:34.370Z,21.24
2017-10-16T15:55:00.681Z,21.15
2017-10-16T15:57:29.220Z,21.09
2017-10-16T15:59:55.555Z,21.02
2017-10-16T16:02:21.906Z,20.94
2017-10-16T16:04:48.217Z,20.90
2017-10-16T16:07:14.669Z,20.84
2017-10-16T16:09:40.974Z,20.85
2017-10-16T16:12:07.279Z,20.82
2017-10-16T16:14:33.635Z,20.78
2017-10-16T16:16:59.931Z,20.80
2017-10-16T16:19:26.210Z,20.70
2017-10-16T16:21:52.501Z,20.65
2017-10-16T16:24:18.838Z,20.60
2017-10-16T16:26:45.176Z,20.56
2017-10-16T16:29:11.480Z,20.59
2017-10-16T16:31:37.782Z,20.63
2017-10-16T16:34:04.814Z,20.63
2017-10-16T16:36:31.189Z,20.54
2017-10-16T16:38:57.474Z,20.47
2017-10-16T16:41:23.801Z,20.45
2017-10-16T16:43:50.115Z,20.42
2017-10-16T16:46:16.418Z,20.49
2017-10-16T16:48:42.696Z,20.49
2017-10-16T16:51:08.999Z,20.50
2017-10-16T16:53:35.283Z,20.39
2017-10-16T16:56:02.285Z,20.28
2017-10-16T16:58:28.918Z,20.22
2017-10-16T17:00:55.209Z,20.21
2017-10-16T17:03:21.498Z,20.20
2017-10-16T17:05:47.922Z,20.30
2017-10-16T17:08:14.222Z,20.22
2017-10-16T17:10:40.790Z,20.27
2017-10-16T17:13:07.165Z,20.37
2017-10-16T17:15:33.472Z,20.44
2017-10-16T17:18:00.508Z,20.36
2017-10-16T17:20:26.907Z,20.29
2017-10-16T17:22:53.292Z,20.23
2017-10-16T17:25:20.354Z,20.22
2017-10-16T17:27:46.740Z,20.16
2017-10-16T17:30:13.037Z,20.20
2017-10-16T17:32:39.355Z,20.14
2017-10-16T17:35:05.675Z,20.19
2017-10-16T17:37:32.002Z,20.12
2017-10-16T17:39:58.305Z,20.05
2017-10-16T17:42:25.395Z,20.02
2017-10-16T17:44:51.682Z,20.04
2017-10-16T17:47:18.739Z,20.03
2017-10-16T17:49:45.800Z,19.90
2017-10-16T17:52:12.063Z,19.88
2017-10-16T17:54:38.352Z,19.87
2017-10-16T17:57:05.572Z,19.89
2017-10-16T17:59:31.847Z,19.85
2017-10-16T18:01:58.131Z,19.87
2017-10-16T18:04:24.449Z,19.79
2017-10-16T18:06:50.749Z,19.70
2017-10-16T18:09:17.101Z,19.70
2017-10-16T18:11:43.506Z,19.73
2017-10-16T18:14:09.767Z,19.74
2017-10-16T18:16:36.412Z,19.70
2017-10-16T18:19:02.731Z,19.68
2017-10-16T18:21:28.992Z,19.58
2017-10-16T18:23:56.085Z,19.49
2017-10-16T18:26:22.381Z,19.45
2017-10-16T18:28:49.408Z,19.48
2017-10-16T18:31:15.752Z,19.46
2017-10-16T18:33:42.789Z,19.46
2017-10-16T18:36:09.104Z,19.57
2017-10-16T18:38:35.644Z,19.51
2017-10-16T18:41:02.659Z,19.41
2017-10-16T18:43:28.939Z,19.55
2017-10-16T18:45:55.959Z,19.51
2017-10-16T18:48:22.225Z,19.55
2017-10-16T18:50:49.216Z,19.60
2017-10-16T18:53:15.535Z,19.65
2017-10-16T18:55:41.786Z,19.51
2017-10-16T18:58:08.128Z,19.39
2017-10-16T19:00:34.479Z,19.37
2017-10-16T19:03:01.541Z,19.39
2017-10-16T19:05:28.884Z,19.37
2017-10-16T19:07:55.990Z,19.28
2017-10-16T19:10:22.296Z,19.30
2017-10-16T19:12:48.558Z,19.24
2017-10-16T19:15:14.880Z,19.27
2017-10-16T19:17:41.173Z,19.16
2017-10-16T19:20:07.502Z,19.13
2017-10-16T19:22:33.834Z,19.08
2017-10-16T19:25:00.167Z,19.07
2017-10-16T19:27:26.446Z,19.17
2017-10-16T19:29:52.761Z,19.24
2017-10-16T19:32:19.114Z,19.20
2017-10-16T19:34:45.406Z,19.17
2017-10-16T19:37:11.681Z,19.10
2017-10-16T19:39:37.993Z,18.93
2017-10-16T19:42:04.314Z,18.91
2017-10-16T19:44:30.853Z,18.88
2017-10-16T19:46:57.121Z,18.85
2017-10-16T19:49:24.199Z,18.79
2017-10-16T19:51:50.526Z,18.77
2017-10-16T19:54:16.794Z,18.71
2017-10-16T19:56:43.047Z,18.63
2017-10-16T19:59:10.355Z,18.64
2017-10-16T20:01:36.644Z,18.71
2017-10-16T20:04:03.646Z,18.64
2017-10-16T20:06:29.922Z,18.57
2017-10-16T20:08:56.951Z,18.51
2017-10-16T20:11:23.208Z,18.43
2017-10-16T20:13:49.508Z,18.49
2017-10-16T20:16:16.512Z,18.43
2017-10-16T20:18:42.784Z,18.47
2017-10-16T20:21:09.838Z,18.39
2017-10-16T20:23:36.843Z,18.37
2017-10-16T20:26:03.390Z,18.42
2017-10-16T20:28:29.668Z,18.40
2017-10-16T20:30:55.966Z,18.45
2017-10-16T20:33:22.987Z,18.46
2017-10-16T20:35:49.267Z,18.44
2017-10-16T20:38:15.540Z,18.45
2017-10-16T20:40:42.075Z,18.47
2017-10-16T20:43:08.357Z,18.42
2017-10-16T20:45:35.358Z,18.57
2017-10-16T20:48:01.666Z,18.48
2017-10-16T20:50:27.930Z,18.40
2017-10-16T20:52:54.193Z,18.33
2017-10-16T20:55:20.488Z,18.27
2017-10-16T20:57:46.752Z,18.15
2017-10-16T21:00:14.929Z,18.05
2017-10-16T21:02:41.205Z,17.96
2017-10-16T21:05:07.450Z,17.90
2017-10-16T21:07:33.707Z,17.88
2017-10-16T21:09:59.995Z,17.86
2017-10-16T21:12:26.293Z,17.85
2017-10-16T21:14:52.561Z,17.81
2017-10-16T21:17:18.882Z,17.79
2017-10-16T21:19:45.141Z,17.74
2017-10-16T21:22:12.150Z,17.74
2017-10-16T21:24:38.495Z,17.72
2017-10-16T21:27:04.769Z,17.70
2017-10-16T21:29:31.035Z,17.69
2017-10-16T21:31:58.073Z,17.70
2017-10-16T21:34:24.331Z,17.65
2017-10-16T21:36:50.602Z,17.57
2017-10-16T21:39:17.051Z,17.57
2017-10-16T21:41:43.287Z,17.53
2017-10-16T21:44:09.674Z,17.57
2017-10-16T21:46:36.706Z,17.48
2017-10-16T21:49:03.013Z,17.49
2017-10-16T21:51:29.312Z,17.49
2017-10-16T21:53:55.594Z,17.42
2017-10-16T21:56:22.055Z,17.37
2017-10-16T21:58:49.055Z,17.35
2017-10-16T22:01:15.355Z,17.43
2017-10-16T22:03:41.658Z,17.38
2017-10-16T22:06:08.701Z,17.42
2017-10-16T22:08:35.707Z,17.51
2017-10-16T22:11:01.999Z,17.61
2017-10-16T22:13:28.875Z,17.64
2017-10-16T22:15:55.154Z,17.72
2017-10-16T22:18:22.178Z,17.78
2017-10-16T22:20:48.711Z,17.75
2017-10-16T22:23:14.966Z,17.75
2017-10-16T22:25:41.966Z,17.77
2017-10-16T22:28:09.216Z,17.88
2017-10-16T22:30:35.523Z,17.91
2017-10-16T22:33:01.781Z,17.91
2017-10-16T22:35:28.186Z,17.91
2017-10-16T22:37:54.466Z,17.90
2017-10-16T22:40:21.470Z,17.83
2017-10-16T22:42:47.774Z,17.84
2017-10-16T22:45:14.053Z,17.85
2017-10-16T22:47:40.342Z,17.85
2017-10-16T22:50:06.628Z,17.83
2017-10-16T22:52:33.622Z,17.83
2017-10-16T22:54:59.930Z,17.82
2017-10-16T22:57:26.611Z,17.82
2017-10-16T22:59:53.001Z,17.89
2017-10-16T23:02:19.258Z,17.99
2017-10-16T23:04:45.549Z,18.01
2017-10-16T23:07:12.550Z,18.00
2017-10-16T23:09:38.806Z,17.97
2017-10-16T23:12:06.129Z,17.97
2017-10-16T23:14:32.390Z,18.01
2017-10-16T23:16:59.404Z,18.07
2017-10-16T23:19:25.707Z,18.07
2017-10-16T23:21:52.023Z,18.12
2017-10-16T23:24:18.313Z,18.21
2017-10-16T23:26:44.590Z,18.26
2017-10-16T23:29:10.851Z,18.29
2017-10-16T23:31:37.111Z,18.49
2017-10-16T23:34:04.134Z,18.49
2017-10-16T23:36:30.438Z,18.44
2017-10-16T23:38:56.737Z,18.43
2017-10-16T23:41:23.162Z,18.45
2017-10-16T23:43:50.207Z,18.45
2017-10-16T23:46:17.215Z,18.49
2017-10-16T23:48:43.678Z,18.48
2017-10-16T23:51:10.686Z,18.46
2017-10-16T23:53:36.934Z,18.46
2017-10-16T23:56:03.214Z,18.43
2017-10-16T23:58:29.474Z,18.46
